|
公曆農曆對照

機場天氣預報 (TAF)

機場天氣預報 (TAF) 載述關於某個機場在預測期內預料會出現的氣象要素。

香港天文台在 19 年 07 月 23 日 19 時 00 分最新發出的香港國際機場天氣預報

TAF VHHH 231100Z 2312/2418 14010KT 9999 FEW020 TX34/2406Z TN28/2322Z TEMPO 2316/2324 VRB05KT TEMPO 2323/2405 4000 SHRA FEW012CB SCT025 TEMPO 2403/2409 24010KT TEMPO 2415/2418 VRB05KT=

(下次更新時間:19年07月24日01時00分)

機場天氣預報電碼經解碼後:-

香港天文台發出 2019 年 07 月 23 日 12 協調世界時 至 2019 年 07 月 24 日 18 協調世界時 的機場天氣預報:
 

時間(協調世界時) 能見度 天氣狀況 雲層 雲層高度
2019 年 07 月 23 日 12 時 至 2019 年 07 月 24 日 18 時 東南風 (140 o) 10 海里/小時 10 公里以上 無重要天氣狀況
1-2
2000 呎
2019 年 07 月 23 日 16 時 至 24 時 期間間中 5 海里/小時 (風向不定) 10 公里以上 無重要天氣狀況
1-2
2000 呎
2019 年 07 月 23 日 23 時 至 2019 年 07 月 24 日 05 時 期間間中 東南風 (140 o) 10 海里/小時 4000 米 驟雨
1-2 積雨雲
3-4
1200 呎
2500 呎
2019 年 07 月 24 日 03 時 至 09 時 期間間中 西南偏西風 (240 o) 10 海里/小時 10 公里以上 無重要天氣狀況
1-2
2000 呎
2019 年 07 月 24 日 15 時 至 18 時 期間間中 5 海里/小時 (風向不定) 10 公里以上 無重要天氣狀況
1-2
2000 呎

時間(協調世界時) 氣溫
2019 年 07 月 24 日 06 時
最高34 oC
2019 年 07 月 23 日 22 時
最低28 oC

份: 雲層是以估計天空被雲遮蔽之總面積來評定。把天空分為八份,1 份即是八份之一的天空被雲遮蔽,2 份即是八份之二的天空被雲遮蔽,如此類推。
  0 份 = 天朗氣清,1-2 份 = 稀薄雲層,3-4 份 = 零散雲層,5-7 份 = 疏鬆雲層,8 份 = 天色陰暗。
若想進一步瞭解機場天氣預報(TAF)的編碼,請參看剖析TAF電碼的意義
若想進一步瞭解雲,請參看香港常見的雲
 
香港國際機場航空天氣報告資料 本港地區航空天氣預報
 
版權及聲明